createdAt,value
2022-08-05T00:00:18.369Z,15.47
2022-08-05T00:02:50.406Z,15.87
2022-08-05T00:06:02.523Z,17.03
2022-08-05T00:08:30.840Z,16.87
2022-08-05T00:10:57.313Z,12.80
2022-08-05T00:13:39.667Z,18.80
2022-08-05T00:16:12.558Z,15.80
2022-08-05T00:18:44.267Z,13.27
2022-08-05T00:21:14.366Z,14.77
2022-08-05T00:23:45.850Z,14.70
2022-08-05T00:26:22.165Z,15.23
2022-08-05T00:28:49.682Z,12.33
2022-08-05T00:31:16.741Z,19.20
2022-08-05T00:34:56.863Z,17.17
2022-08-05T00:37:09.902Z,14.80
2022-08-05T00:39:41.558Z,16.43
2022-08-05T00:42:11.672Z,15.77
2022-08-05T00:44:58.617Z,16.90
2022-08-05T00:47:26.527Z,17.00
2022-08-05T00:50:13.455Z,19.30
2022-08-05T00:52:40.540Z,12.00
2022-08-05T00:55:07.873Z,16.87
2022-08-05T00:57:38.420Z,16.07
2022-08-05T01:00:22.048Z,12.57
2022-08-05T01:02:53.151Z,13.07
2022-08-05T01:05:20.182Z,14.20
2022-08-05T01:08:39.950Z,12.10
2022-08-05T01:10:51.602Z,16.00
2022-08-05T01:13:58.288Z,13.83
2022-08-05T01:16:44.463Z,15.40
2022-08-05T01:19:36.524Z,19.67
2022-08-05T01:22:41.643Z,18.03
2022-08-05T01:25:41.987Z,18.30
2022-08-05T01:28:52.293Z,20.40
2022-08-05T01:31:44.863Z,16.67
2022-08-05T01:34:48.312Z,19.40
2022-08-05T01:37:29.232Z,19.63
2022-08-05T01:40:01.977Z,18.53
2022-08-05T01:42:31.279Z,20.03
2022-08-05T01:45:02.127Z,19.37
2022-08-05T01:47:39.655Z,16.07
2022-08-05T01:50:29.778Z,15.47
2022-08-05T01:53:02.535Z,15.93
2022-08-05T01:55:36.168Z,18.00
2022-08-05T01:58:12.869Z,17.80
2022-08-05T02:00:57.984Z,18.63
2022-08-05T02:03:31.983Z,18.93
2022-08-05T02:06:03.769Z,20.33
2022-08-05T02:08:58.444Z,18.50
2022-08-05T02:11:48.086Z,17.30
2022-08-05T02:14:33.717Z,19.13
2022-08-05T02:18:28.259Z,19.90
2022-08-05T02:20:22.924Z,19.97
2022-08-05T02:23:08.770Z,16.03
2022-08-05T02:25:49.529Z,20.33
2022-08-05T02:28:28.377Z,18.33
2022-08-05T02:31:08.265Z,18.17
2022-08-05T02:33:57.251Z,17.20
2022-08-05T02:36:31.348Z,17.30
2022-08-05T02:39:00.438Z,20.97
2022-08-05T02:41:43.344Z,15.90
2022-08-05T02:44:17.959Z,17.50
2022-08-05T02:46:58.880Z,17.53
2022-08-05T02:49:35.824Z,16.57
2022-08-05T02:52:13.608Z,16.30
2022-08-05T02:54:56.989Z,16.00
2022-08-05T02:58:11.545Z,15.30
2022-08-05T03:00:14.809Z,18.50
2022-08-05T03:02:44.702Z,15.10
2022-08-05T03:05:12.512Z,18.40
2022-08-05T03:08:00.881Z,15.30
2022-08-05T03:10:28.889Z,17.63
2022-08-05T03:15:23.738Z,15.00
2022-08-05T03:17:57.529Z,15.57
2022-08-05T03:20:25.153Z,12.93
2022-08-05T03:22:57.329Z,14.83
2022-08-05T03:25:32.860Z,17.33
2022-08-05T03:28:14.430Z,13.60
2022-08-05T03:30:47.943Z,12.83
2022-08-05T03:33:15.050Z,12.27
2022-08-05T03:35:42.354Z,16.00
2022-08-05T03:38:12.681Z,17.37
2022-08-05T03:40:45.158Z,15.67
2022-08-05T03:44:08.790Z,12.03
2022-08-05T03:46:04.363Z,12.67
2022-08-05T03:48:35.594Z,11.40
2022-08-05T03:52:37.773Z,12.83
2022-08-05T03:55:53.789Z,11.37
2022-08-05T03:57:42.316Z,9.83
2022-08-05T04:00:16.187Z,14.10
2022-08-05T04:02:58.718Z,12.40
2022-08-05T04:05:34.250Z,13.13
2022-08-05T04:08:14.708Z,12.97
2022-08-05T04:10:57.236Z,13.17
2022-08-05T04:13:25.677Z,13.87
2022-08-05T04:16:14.316Z,10.80
2022-08-05T04:18:41.480Z,11.03
2022-08-05T04:21:11.082Z,12.20
2022-08-05T04:24:04.817Z,11.85
2022-08-05T04:26:26.270Z,12.47
2022-08-05T04:29:00.695Z,13.43
2022-08-05T04:31:38.509Z,11.60
2022-08-05T04:34:31.602Z,12.43
2022-08-05T04:36:52.872Z,13.87
2022-08-05T04:39:20.894Z,10.83
2022-08-05T04:41:51.221Z,12.40
2022-08-05T04:44:21.509Z,14.10
2022-08-05T04:46:58.712Z,10.13
2022-08-05T04:49:38.911Z,10.63
2022-08-05T04:52:13.858Z,11.20
2022-08-05T04:54:42.235Z,13.73
2022-08-05T04:57:09.169Z,10.63
2022-08-05T04:59:38.772Z,10.17
2022-08-05T05:02:37.197Z,10.87
2022-08-05T05:05:02.743Z,14.03
2022-08-05T05:07:32.803Z,12.10
2022-08-05T05:10:05.385Z,11.13
2022-08-05T05:12:33.418Z,10.03
2022-08-05T05:15:03.965Z,11.60
2022-08-05T05:17:56.881Z,12.53
2022-08-05T05:20:28.821Z,14.33
2022-08-05T05:23:08.267Z,13.30
2022-08-05T05:25:47.859Z,14.60
2022-08-05T05:28:14.841Z,15.53
2022-08-05T05:30:42.698Z,10.00
2022-08-05T05:33:17.369Z,11.17
2022-08-05T05:35:46.623Z,14.40
2022-08-05T05:38:14.240Z,10.53
2022-08-05T05:40:49.543Z,14.13
2022-08-05T05:43:27.472Z,11.43
2022-08-05T05:46:12.110Z,15.00
2022-08-05T05:48:43.836Z,12.77
2022-08-05T05:51:15.273Z,11.37
2022-08-05T05:53:57.902Z,14.13
2022-08-05T05:56:31.720Z,13.47
2022-08-05T05:59:03.604Z,12.23
2022-08-05T06:01:37.349Z,11.43
2022-08-05T06:04:14.570Z,12.90
2022-08-05T06:06:47.461Z,12.63
2022-08-05T06:09:25.619Z,11.87
2022-08-05T06:12:04.064Z,11.57
2022-08-05T06:14:31.761Z,13.40
2022-08-05T06:17:02.190Z,12.83
2022-08-05T06:19:57.140Z,12.63
2022-08-05T06:22:34.018Z,14.20
2022-08-05T06:25:24.282Z,13.23
2022-08-05T06:28:10.685Z,15.63
2022-08-05T06:30:38.739Z,14.30
2022-08-05T06:33:05.629Z,13.13
2022-08-05T06:36:04.191Z,13.17
2022-08-05T06:38:36.309Z,15.50
2022-08-05T06:41:05.225Z,15.17
2022-08-05T06:43:57.661Z,14.03
2022-08-05T06:46:23.518Z,14.40
2022-08-05T06:48:59.170Z,13.07
2022-08-05T06:51:29.453Z,12.90
2022-08-05T06:53:59.043Z,14.60
2022-08-05T06:56:27.151Z,12.30
2022-08-05T06:58:55.416Z,14.30
2022-08-05T07:01:23.443Z,13.23
2022-08-05T07:03:54.726Z,14.23
2022-08-05T07:06:22.759Z,14.40
2022-08-05T07:08:51.848Z,12.57
2022-08-05T07:11:25.189Z,11.83
2022-08-05T07:14:20.135Z,13.90
2022-08-05T07:18:08.130Z,11.63
2022-08-05T07:20:22.984Z,10.83
2022-08-05T07:22:27.738Z,12.53
2022-08-05T07:25:24.010Z,10.57
2022-08-05T07:27:58.240Z,11.27
2022-08-05T07:30:39.957Z,11.47
2022-08-05T07:33:16.519Z,15.60
2022-08-05T07:36:05.229Z,11.00
2022-08-05T07:38:35.672Z,10.63
2022-08-05T07:42:13.897Z,11.03
2022-08-05T07:44:14.132Z,9.90
2022-08-05T07:46:41.935Z,11.43
2022-08-05T07:49:16.555Z,10.83
2022-08-05T07:51:53.038Z,10.20
2022-08-05T07:54:30.773Z,11.53
2022-08-05T07:57:02.086Z,11.20
2022-08-05T07:59:42.123Z,11.13
2022-08-05T08:02:16.675Z,12.23
2022-08-05T08:04:49.260Z,13.27
2022-08-05T08:07:22.031Z,12.53
2022-08-05T08:09:52.581Z,12.90
2022-08-05T08:12:37.517Z,10.90
2022-08-05T08:15:15.124Z,13.00
2022-08-05T08:17:52.483Z,12.70
2022-08-05T08:21:00.108Z,13.23
2022-08-05T08:24:00.156Z,12.53
2022-08-05T08:26:00.698Z,10.77
2022-08-05T08:28:36.586Z,14.73
2022-08-05T08:31:10.058Z,14.13
2022-08-05T08:33:45.278Z,13.73
2022-08-05T08:36:39.009Z,14.90
2022-08-05T08:38:59.249Z,14.03
2022-08-05T08:41:50.798Z,14.70
2022-08-05T08:45:20.397Z,13.80
2022-08-05T08:47:47.261Z,14.33
2022-08-05T08:50:22.299Z,14.30
2022-08-05T08:52:54.058Z,16.23
2022-08-05T08:56:01.792Z,17.27
2022-08-05T08:58:12.992Z,17.03
2022-08-05T09:00:42.584Z,15.07
2022-08-05T09:03:11.623Z,14.83
2022-08-05T09:06:08.530Z,14.60
2022-08-05T09:08:26.651Z,13.57
2022-08-05T09:10:54.672Z,14.37
2022-08-05T09:13:23.585Z,14.43
2022-08-05T09:15:51.611Z,16.27
2022-08-05T09:18:18.793Z,16.17
2022-08-05T09:20:47.099Z,13.00
2022-08-05T09:23:21.575Z,8.53
2022-08-05T09:26:08.520Z,8.00
2022-08-05T09:28:39.044Z,7.03
2022-08-05T09:31:18.302Z,8.60
2022-08-05T09:34:11.532Z,7.67
2022-08-05T09:36:55.923Z,6.53
2022-08-05T09:39:39.425Z,6.30
2022-08-05T09:42:24.002Z,5.87
2022-08-05T09:46:04.807Z,7.63
2022-08-05T09:48:01.421Z,7.70
2022-08-05T09:50:44.024Z,9.30
2022-08-05T09:53:22.807Z,9.33
2022-08-05T09:56:04.522Z,8.70
2022-08-05T09:58:32.392Z,7.40
2022-08-05T10:01:14.724Z,7.93
2022-08-05T10:04:12.988Z,8.07
2022-08-05T10:06:55.076Z,6.73
2022-08-05T10:09:27.947Z,9.27
2022-08-05T10:12:30.153Z,8.97
2022-08-05T10:15:16.972Z,7.60
2022-08-05T10:17:54.399Z,7.40
2022-08-05T10:20:25.149Z,7.03
2022-08-05T10:22:52.701Z,8.83
2022-08-05T10:25:19.762Z,8.60
2022-08-05T10:28:13.635Z,6.70
2022-08-05T10:31:20.685Z,6.97
2022-08-05T10:33:28.840Z,8.13
2022-08-05T10:35:59.794Z,8.00
2022-08-05T10:38:29.641Z,15.33
2022-08-05T10:41:12.435Z,21.10
2022-08-05T10:44:02.383Z,7.70
2022-08-05T10:46:54.177Z,7.67
2022-08-05T10:49:27.395Z,7.60
2022-08-05T10:52:03.288Z,8.93
2022-08-05T10:55:07.112Z,13.03
2022-08-05T10:57:34.525Z,9.27
2022-08-05T11:00:23.185Z,9.90
2022-08-05T11:03:23.041Z,9.60
2022-08-05T11:06:15.381Z,9.47
2022-08-05T11:09:16.761Z,9.97
2022-08-05T11:11:53.243Z,7.53
2022-08-05T11:14:57.541Z,9.17
2022-08-05T11:18:00.215Z,9.30
2022-08-05T11:20:46.251Z,7.17
2022-08-05T11:24:04.589Z,9.20
2022-08-05T11:26:43.297Z,9.63
2022-08-05T11:29:42.636Z,8.50
2022-08-05T11:32:30.196Z,8.10
2022-08-05T11:34:57.670Z,9.17
2022-08-05T11:38:28.240Z,6.83
2022-08-05T11:41:34.367Z,4.30
2022-08-05T11:44:08.395Z,3.90
2022-08-05T11:47:09.970Z,4.07
2022-08-05T11:49:38.647Z,4.53
2022-08-05T11:52:11.755Z,4.43
2022-08-05T11:54:40.361Z,4.73
2022-08-05T11:57:24.284Z,5.73
2022-08-05T11:59:53.547Z,5.10
2022-08-05T12:02:33.132Z,7.43
2022-08-05T12:05:07.683Z,6.20
2022-08-05T12:08:07.485Z,5.13
2022-08-05T12:10:43.710Z,5.80
2022-08-05T12:13:27.755Z,5.10
2022-08-05T12:16:15.730Z,6.03
2022-08-05T12:18:52.186Z,5.20
2022-08-05T12:21:30.534Z,5.40
2022-08-05T12:24:08.918Z,6.20
2022-08-05T12:26:49.964Z,6.73
2022-08-05T12:29:23.705Z,5.97
2022-08-05T12:31:54.590Z,5.50
2022-08-05T12:34:28.234Z,5.37
2022-08-05T12:36:58.197Z,5.10
2022-08-05T12:39:28.087Z,5.03
2022-08-05T12:42:01.522Z,6.30
2022-08-05T12:44:33.597Z,5.20
2022-08-05T12:47:02.424Z,5.40
2022-08-05T12:50:02.371Z,5.43
2022-08-05T12:52:38.568Z,4.70
2022-08-05T12:55:28.551Z,4.60
2022-08-05T12:58:48.593Z,3.80
2022-08-05T13:02:01.241Z,3.90
2022-08-05T13:03:43.095Z,3.10
2022-08-05T13:06:17.282Z,2.63
2022-08-05T13:08:52.091Z,4.23
2022-08-05T13:12:02.258Z,4.17
2022-08-05T13:14:24.882Z,4.30
2022-08-05T13:17:07.622Z,4.60
2022-08-05T13:19:51.590Z,4.27
2022-08-05T13:22:27.790Z,4.10
2022-08-05T13:25:05.871Z,4.47
2022-08-05T13:27:41.545Z,4.93
2022-08-05T13:30:32.680Z,4.90
2022-08-05T13:33:01.226Z,4.30
2022-08-05T13:35:42.657Z,5.30
2022-08-05T13:38:19.993Z,4.57
2022-08-05T13:40:55.537Z,6.03
2022-08-05T13:43:22.492Z,5.60
2022-08-05T13:45:50.895Z,6.07
2022-08-05T13:48:58.742Z,6.33
2022-08-05T13:51:09.873Z,4.93
2022-08-05T13:53:47.687Z,5.33
2022-08-05T13:56:18.371Z,6.07
2022-08-05T13:58:53.499Z,6.87
2022-08-05T14:01:25.875Z,3.93
2022-08-05T14:04:26.456Z,5.13
2022-08-05T14:07:11.989Z,4.47
2022-08-05T14:09:44.396Z,3.90
2022-08-05T14:12:18.317Z,4.40
2022-08-05T14:15:00.051Z,5.23
2022-08-05T14:17:28.229Z,5.30
2022-08-05T14:19:59.590Z,3.50
2022-08-05T14:22:30.539Z,3.63
2022-08-05T14:25:02.544Z,4.23
2022-08-05T14:27:33.486Z,4.00
2022-08-05T14:30:01.272Z,4.67
2022-08-05T14:32:35.514Z,4.20
2022-08-05T14:35:06.923Z,3.80
2022-08-05T14:37:48.006Z,3.70
2022-08-05T14:40:16.810Z,3.80
2022-08-05T14:42:44.179Z,3.93
2022-08-05T14:45:11.562Z,6.30
2022-08-05T14:48:04.093Z,3.93
2022-08-05T14:50:25.521Z,3.20
2022-08-05T14:52:57.539Z,5.43
2022-08-05T14:55:38.671Z,3.50
2022-08-05T14:58:11.565Z,4.33
2022-08-05T15:00:59.706Z,2.30
2022-08-05T15:03:34.180Z,3.70
2022-08-05T15:06:15.058Z,2.30
2022-08-05T15:09:01.309Z,2.97
2022-08-05T15:11:53.017Z,2.70
2022-08-05T15:14:34.578Z,2.57
2022-08-05T15:17:09.850Z,1.83
2022-08-05T15:19:56.330Z,3.17
2022-08-05T15:22:27.167Z,2.07
2022-08-05T15:24:56.727Z,2.83
2022-08-05T15:27:25.716Z,2.30
2022-08-05T15:29:54.283Z,0.90
2022-08-05T15:32:28.619Z,1.00
2022-08-05T15:34:57.073Z,0.60
2022-08-05T15:38:34.582Z,0.90
2022-08-05T15:41:03.072Z,3.23
2022-08-05T15:43:12.654Z,2.00
2022-08-05T15:45:47.435Z,1.40
2022-08-05T15:48:15.346Z,0.90
2022-08-05T15:50:43.823Z,1.10
2022-08-05T15:53:13.587Z,1.33
2022-08-05T15:56:01.474Z,0.93
2022-08-05T15:58:29.235Z,3.33
2022-08-05T16:01:16.574Z,2.20
2022-08-05T16:03:50.403Z,3.80
2022-08-05T16:06:20.130Z,1.27
2022-08-05T16:08:50.382Z,1.30
2022-08-05T16:11:18.526Z,3.57
2022-08-05T16:13:48.689Z,2.27
2022-08-05T16:16:25.280Z,2.50
2022-08-05T16:18:53.063Z,1.50
2022-08-05T16:21:20.545Z,4.33
2022-08-05T16:23:53.922Z,1.83
2022-08-05T16:26:26.513Z,1.53
2022-08-05T16:28:55.063Z,2.17
2022-08-05T16:31:22.582Z,1.23
2022-08-05T16:33:52.106Z,1.47
2022-08-05T16:36:23.933Z,1.47
2022-08-05T16:38:54.337Z,1.27
2022-08-05T16:42:12.741Z,2.33
2022-08-05T16:44:11.663Z,1.73
2022-08-05T16:46:41.064Z,1.70
2022-08-05T16:49:10.086Z,1.70
2022-08-05T16:51:42.864Z,0.90
2022-08-05T16:54:25.853Z,1.43
2022-08-05T16:56:56.081Z,1.90
2022-08-05T16:59:23.267Z,2.50
2022-08-05T17:01:53.671Z,1.80
2022-08-05T17:04:26.369Z,1.30
2022-08-05T17:06:55.356Z,0.90
2022-08-05T17:09:22.874Z,2.60
2022-08-05T17:11:55.957Z,1.47
2022-08-05T17:14:37.632Z,1.20
2022-08-05T17:17:09.295Z,1.83
2022-08-05T17:19:45.594Z,1.70
2022-08-05T17:22:24.735Z,0.73
2022-08-05T17:24:57.412Z,1.63
2022-08-05T17:27:33.839Z,1.83
2022-08-05T17:30:11.832Z,5.03
2022-08-05T17:32:46.148Z,2.13
2022-08-05T17:35:15.696Z,2.43
2022-08-05T17:37:48.615Z,2.50
2022-08-05T17:40:18.141Z,0.90
2022-08-05T17:42:51.829Z,1.47
2022-08-05T17:45:25.162Z,1.53
2022-08-05T17:48:07.655Z,0.80
2022-08-05T17:50:34.688Z,1.57
2022-08-05T17:53:04.665Z,1.33
2022-08-05T17:55:38.368Z,1.90
2022-08-05T17:58:13.213Z,0.93
2022-08-05T18:00:47.120Z,2.00
2022-08-05T18:03:48.434Z,0.80
2022-08-05T18:06:12.063Z,1.70
2022-08-05T18:08:46.098Z,1.83
2022-08-05T18:11:24.294Z,1.87
2022-08-05T18:14:04.171Z,1.87
2022-08-05T18:16:33.486Z,1.77
2022-08-05T18:19:00.821Z,1.10
2022-08-05T18:22:07.028Z,1.00
2022-08-05T18:24:14.856Z,1.97
2022-08-05T18:26:42.054Z,1.20
2022-08-05T18:29:10.993Z,0.70
2022-08-05T18:31:38.258Z,1.27
2022-08-05T18:34:12.276Z,1.77
2022-08-05T18:36:41.352Z,1.83
2022-08-05T18:39:42.566Z,1.87
2022-08-05T18:42:03.598Z,0.80
2022-08-05T18:44:51.855Z,1.00
2022-08-05T18:47:22.770Z,0.87
2022-08-05T18:50:12.521Z,0.90
2022-08-05T18:52:50.502Z,1.70
2022-08-05T18:55:18.933Z,4.87
2022-08-05T18:57:53.458Z,3.03
2022-08-05T19:00:28.420Z,3.43
2022-08-05T19:03:03.334Z,1.90
2022-08-05T19:06:13.166Z,3.70
2022-08-05T19:08:19.900Z,2.03
2022-08-05T19:10:49.968Z,1.10
2022-08-05T19:13:17.744Z,1.70
2022-08-05T19:15:59.374Z,1.60
2022-08-05T19:18:30.585Z,1.30
2022-08-05T19:20:59.533Z,1.73
2022-08-05T19:24:06.210Z,0.93
2022-08-05T19:26:14.531Z,3.57
2022-08-05T19:28:42.347Z,1.77
2022-08-05T19:31:17.977Z,4.97
2022-08-05T19:33:55.666Z,1.00
2022-08-05T19:36:29.267Z,1.63
2022-08-05T19:39:00.529Z,1.77
2022-08-05T19:41:58.013Z,4.60
2022-08-05T19:44:18.523Z,2.97
2022-08-05T19:46:45.842Z,2.83
2022-08-05T19:49:16.908Z,2.00
2022-08-05T19:52:04.767Z,0.87
2022-08-05T19:54:34.674Z,2.10
2022-08-05T19:57:08.667Z,1.60
2022-08-05T20:00:00.881Z,1.00
2022-08-05T20:02:27.713Z,1.90
2022-08-05T20:04:58.875Z,1.03
2022-08-05T20:07:46.887Z,1.43
2022-08-05T20:10:16.464Z,0.80
2022-08-05T20:12:48.299Z,2.80
2022-08-05T20:15:48.252Z,1.57
2022-08-05T20:18:10.397Z,2.10
2022-08-05T20:20:55.069Z,2.17
2022-08-05T20:23:40.526Z,2.00
2022-08-05T20:26:15.891Z,1.70
2022-08-05T20:28:46.148Z,2.38
2022-08-05T20:31:14.375Z,1.60
2022-08-05T20:33:45.000Z,2.60
2022-08-05T20:36:14.375Z,1.80
2022-08-05T20:38:54.380Z,2.27
2022-08-05T20:41:44.086Z,1.53
2022-08-05T20:44:29.707Z,1.60
2022-08-05T20:47:03.304Z,1.73
2022-08-05T20:49:37.951Z,2.00
2022-08-05T20:52:07.757Z,1.20
2022-08-05T20:54:58.881Z,2.28
2022-08-05T20:57:42.131Z,2.92
2022-08-05T21:00:36.386Z,4.13
2022-08-05T21:03:06.954Z,3.10
2022-08-05T21:05:47.824Z,0.98
2022-08-05T21:08:27.994Z,1.20
2022-08-05T21:11:09.894Z,39.43
2022-08-05T21:13:48.354Z,4.20
2022-08-05T21:16:30.184Z,2.67
2022-08-05T21:19:00.668Z,6.40
2022-08-05T21:21:39.606Z,5.43
2022-08-05T21:24:13.515Z,6.93
2022-08-05T21:26:44.995Z,9.47
2022-08-05T21:29:15.726Z,8.10
2022-08-05T21:31:43.772Z,5.90
2022-08-05T21:34:11.490Z,6.53
2022-08-05T21:36:39.451Z,4.30
2022-08-05T21:39:10.386Z,2.97
2022-08-05T21:41:41.977Z,3.67
2022-08-05T21:44:20.422Z,3.20
2022-08-05T21:46:54.102Z,2.57
2022-08-05T21:50:00.030Z,3.27
2022-08-05T21:52:21.813Z,3.63
2022-08-05T21:54:57.320Z,3.13
2022-08-05T21:57:32.586Z,1.90
2022-08-05T22:00:06.336Z,1.97
2022-08-05T22:02:41.506Z,3.17
2022-08-05T22:05:11.294Z,4.03
2022-08-05T22:07:40.052Z,2.40
2022-08-05T22:10:27.348Z,7.57
2022-08-05T22:13:08.762Z,1.60
2022-08-05T22:16:02.728Z,1.80
2022-08-05T22:18:34.175Z,1.90
2022-08-05T22:21:04.669Z,2.30
2022-08-05T22:24:01.325Z,2.00
2022-08-05T22:26:49.800Z,3.33
2022-08-05T22:29:18.781Z,8.27
2022-08-05T22:31:55.231Z,2.77
2022-08-05T22:34:28.643Z,2.23
2022-08-05T22:36:58.457Z,3.07
2022-08-05T22:39:33.459Z,2.43
2022-08-05T22:42:10.152Z,2.47
2022-08-05T22:44:47.037Z,1.70
2022-08-05T22:47:29.857Z,1.90
2022-08-05T22:50:19.893Z,2.83
2022-08-05T22:52:48.253Z,1.63
2022-08-05T22:55:19.419Z,1.50
2022-08-05T22:57:52.618Z,2.77
2022-08-05T23:00:21.804Z,1.90
2022-08-05T23:02:50.722Z,1.67
2022-08-05T23:05:22.254Z,1.60
2022-08-05T23:07:51.150Z,1.37
2022-08-05T23:10:20.976Z,1.90
2022-08-05T23:12:55.173Z,2.03
2022-08-05T23:15:29.989Z,1.33
2022-08-05T23:18:11.355Z,1.83
2022-08-05T23:20:39.614Z,1.43
2022-08-05T23:23:08.227Z,1.67
2022-08-05T23:25:53.093Z,2.93
2022-08-05T23:28:29.168Z,4.00
2022-08-05T23:31:16.177Z,1.30
2022-08-05T23:34:06.194Z,1.73
2022-08-05T23:36:40.254Z,1.90
2022-08-05T23:39:17.397Z,1.93
2022-08-05T23:41:51.447Z,1.70
2022-08-05T23:44:19.758Z,2.37
2022-08-05T23:46:50.011Z,2.30
2022-08-05T23:49:20.129Z,2.27
2022-08-05T23:52:11.045Z,2.30
2022-08-05T23:54:38.848Z,2.70
2022-08-05T23:57:07.573Z,3.47
